This is the latest recevied weather packets stored in our database for station/object KE0TNI-13. If no packets are shown the sender has not sent any weather packets the latest 10 day(s).
| Time | Temp. | Humidity | Pressure | Rain* | Wind** | Luminosity | Snow |
|---|---|---|---|---|---|---|---|
| 1777046721 | 7.78° C | 21% | 1013 hPa | 0 mm | - | 38 W/m² | - |
| 1777046416 | 7.78° C | 22% | 1012.8 hPa | 0 mm | - | 37 W/m² | - |
| 1777046112 | 7.78° C | 22% | 1013.1 hPa | 0 mm | - | 36 W/m² | - |
| 1777045809 | 7.22° C | 22% | 1013.2 hPa | 0 mm | - | 36 W/m² | - |
| 1777045505 | 6.67° C | 23% | 1013.2 hPa | 0 mm | - | 35 W/m² | - |
| 1777045200 | 6.67° C | 23% | 1013.2 hPa | 0 mm | - | 35 W/m² | - |
| 1777044896 | 6.67° C | 25% | 1013.4 hPa | 0 mm | - | 34 W/m² | - |
| 1777044591 | 6.11° C | 21% | 1013.5 hPa | 0 mm | - | 36 W/m² | - |
| 1777044289 | 5.56° C | 25% | 1013.6 hPa | 0 mm | - | 33 W/m² | - |
| 1777043984 | 5.56° C | 25% | 1013.5 hPa | 0 mm | - | 32 W/m² | - |
| 1777043681 | 5.56° C | 26% | 1013.5 hPa | 0 mm | - | 31 W/m² | - |
| 1777043379 | 5.56° C | 23% | 1013.5 hPa | 0 mm | - | 31 W/m² | - |
| 1777043079 | 5.56° C | 24% | 1013.6 hPa | 0 mm | - | 48 W/m² | - |
| 1777042774 | 5.56° C | 24% | 1013.9 hPa | 0 mm | - | 29 W/m² | - |
| 1777042469 | 5.56° C | 20% | 1013.9 hPa | 0 mm | - | 29 W/m² | - |
| 1777042166 | 4.44° C | 23% | 1013.5 hPa | 0 mm | - | 68 W/m² | - |
| 1777041862 | 4.44° C | 26% | 1013.9 hPa | 0 mm | - | 115 W/m² | - |
| 1777041560 | 3.89° C | 28% | 1014 hPa | 0 mm | - | 175 W/m² | - |
| 1777041255 | 3.33° C | 29% | 1013.9 hPa | 0 mm | - | 29 W/m² | - |
| 1777040952 | 2.78° C | 27% | 1013.9 hPa | 0 mm | - | 25 W/m² | - |
| 1777040648 | 2.78° C | 30% | 1014 hPa | 0 mm | - | 32 W/m² | - |
| 1777040348 | 2.78° C | 29% | 1014 hPa | 0 mm | - | 30 W/m² | - |
| 1777040043 | 2.22° C | 28% | 1013.7 hPa | 0 mm | - | 29 W/m² | - |
| 1777039740 | 2.22° C | 29% | 1013.9 hPa | 0 mm | - | 26 W/m² | - |
| 1777039434 | 2.22° C | 29% | 1014.1 hPa | 0 mm | - | 41 W/m² | - |
* Rain latest hour (hover to see other rain measurements)
** Current wind speed in m/s (hover to see current wind gust speed)